createdAt,value
2022-08-07T00:00:27.982Z,462.00
2022-08-07T00:00:58.095Z,463.00
2022-08-07T00:01:44.001Z,464.00
2022-08-07T00:02:36.920Z,465.00
2022-08-07T00:02:39.938Z,467.00
2022-08-07T00:02:58.220Z,467.00
2022-08-07T00:03:28.332Z,467.00
2022-08-07T00:03:58.340Z,468.00
2022-08-07T00:04:28.522Z,467.00
2022-08-07T00:04:58.575Z,466.00
2022-08-07T00:05:28.534Z,467.00
2022-08-07T00:05:58.614Z,466.00
2022-08-07T00:06:29.517Z,466.00
2022-08-07T00:07:01.398Z,467.00
2022-08-07T00:07:29.201Z,467.00
2022-08-07T00:08:00.229Z,467.00
2022-08-07T00:08:28.869Z,467.00
2022-08-07T00:08:58.949Z,467.00
2022-08-07T00:09:35.614Z,467.00
2022-08-07T00:10:25.676Z,467.00
2022-08-07T00:10:30.417Z,466.00
2022-08-07T00:10:59.078Z,466.00
2022-08-07T00:11:29.961Z,467.00
2022-08-07T00:11:59.213Z,469.00
2022-08-07T00:12:29.241Z,469.00
2022-08-07T00:13:00.268Z,467.00
2022-08-07T00:13:29.391Z,468.00
2022-08-07T00:13:59.497Z,465.00
2022-08-07T00:14:30.107Z,465.00
2022-08-07T00:14:59.696Z,465.00
2022-08-07T00:15:37.906Z,466.00
2022-08-07T00:15:59.813Z,466.00
2022-08-07T00:16:29.926Z,467.00
2022-08-07T00:17:00.036Z,467.00
2022-08-07T00:17:30.216Z,467.00
2022-08-07T00:18:00.056Z,466.00
2022-08-07T00:18:30.038Z,467.00
2022-08-07T00:19:00.143Z,467.00
2022-08-07T00:20:00.689Z,468.00
2022-08-07T00:20:03.271Z,468.00
2022-08-07T00:20:35.353Z,467.00
2022-08-07T00:21:01.830Z,468.00
2022-08-07T00:21:56.269Z,469.00
2022-08-07T00:22:02.302Z,470.00
2022-08-07T00:22:35.507Z,469.00
2022-08-07T00:23:00.431Z,468.00
2022-08-07T00:23:30.542Z,467.00
2022-08-07T00:24:00.647Z,467.00
2022-08-07T00:24:31.771Z,465.00
2022-08-07T00:25:00.787Z,463.00
2022-08-07T00:25:37.480Z,464.00
2022-08-07T00:26:13.189Z,463.00
2022-08-07T00:26:49.363Z,462.00
2022-08-07T00:27:07.533Z,463.00
2022-08-07T00:27:51.870Z,464.00
2022-08-07T00:28:00.866Z,464.00
2022-08-07T00:28:33.686Z,463.00
2022-08-07T00:29:00.990Z,463.00
2022-08-07T00:29:31.476Z,464.00
2022-08-07T00:30:00.998Z,463.00
2022-08-07T00:30:31.104Z,463.00
2022-08-07T00:31:01.210Z,463.00
2022-08-07T00:31:38.097Z,464.00
2022-08-07T00:32:01.245Z,463.00
2022-08-07T00:32:31.353Z,463.00
2022-08-07T00:33:02.144Z,462.00
2022-08-07T00:33:32.762Z,463.00
2022-08-07T00:34:01.428Z,461.00
2022-08-07T00:34:31.455Z,460.00
2022-08-07T00:35:01.455Z,460.00
2022-08-07T00:35:31.468Z,458.00
2022-08-07T00:36:01.503Z,457.00
2022-08-07T00:36:31.601Z,456.00
2022-08-07T00:37:01.717Z,458.00
2022-08-07T00:37:41.496Z,457.00
2022-08-07T00:38:01.833Z,457.00
2022-08-07T00:38:32.040Z,457.00
2022-08-07T00:39:01.999Z,456.00
2022-08-07T00:39:32.112Z,456.00
2022-08-07T00:40:02.120Z,456.00
2022-08-07T00:40:39.724Z,457.00
2022-08-07T00:41:02.253Z,457.00
2022-08-07T00:41:32.340Z,458.00
2022-08-07T00:42:05.423Z,458.00
2022-08-07T00:42:32.379Z,458.00
2022-08-07T00:43:02.387Z,461.00
2022-08-07T00:44:00.754Z,463.00
2022-08-07T00:44:03.026Z,462.00
2022-08-07T00:44:33.310Z,461.00
2022-08-07T00:45:02.652Z,463.00
2022-08-07T00:45:32.745Z,463.00
2022-08-07T00:46:02.863Z,464.00
2022-08-07T00:46:34.127Z,465.00
2022-08-07T00:47:03.033Z,464.00
2022-08-07T00:48:09.476Z,462.00
2022-08-07T00:48:09.681Z,463.00
2022-08-07T00:48:33.135Z,462.00
2022-08-07T00:49:03.604Z,463.00
2022-08-07T00:50:20.234Z,461.00
2022-08-07T00:50:20.813Z,462.00
2022-08-07T00:50:46.161Z,461.00
2022-08-07T00:51:03.555Z,462.00
2022-08-07T00:51:56.953Z,461.00
2022-08-07T00:52:03.724Z,461.00
2022-08-07T00:52:33.783Z,462.00
2022-08-07T00:53:03.874Z,462.00
2022-08-07T00:53:39.298Z,463.00
2022-08-07T00:54:04.072Z,462.00
2022-08-07T00:54:34.160Z,462.00
2022-08-07T00:55:04.656Z,463.00
2022-08-07T00:56:02.613Z,464.00
2022-08-07T00:56:04.427Z,465.00
2022-08-07T00:56:34.531Z,464.00
2022-08-07T00:57:04.600Z,465.00
2022-08-07T00:57:34.610Z,466.00
2022-08-07T00:58:04.678Z,466.00
2022-08-07T00:58:34.749Z,467.00
2022-08-07T00:59:04.817Z,466.00
2022-08-07T00:59:36.050Z,466.00
2022-08-07T01:00:05.337Z,467.00
2022-08-07T01:00:35.096Z,466.00
2022-08-07T01:01:05.254Z,467.00
2022-08-07T01:01:44.057Z,467.00
2022-08-07T01:02:06.291Z,466.00
2022-08-07T01:02:35.231Z,465.00
2022-08-07T01:03:05.337Z,465.00
2022-08-07T01:03:57.020Z,464.00
2022-08-07T01:04:05.409Z,463.00
2022-08-07T01:04:42.946Z,463.00
2022-08-07T01:05:05.503Z,461.00
2022-08-07T01:05:36.571Z,462.00
2022-08-07T01:06:05.542Z,462.00
2022-08-07T01:06:35.643Z,462.00
2022-08-07T01:07:05.747Z,461.00
2022-08-07T01:07:35.785Z,459.00
2022-08-07T01:08:05.889Z,460.00
2022-08-07T01:08:35.933Z,461.00
2022-08-07T01:09:05.938Z,462.00
2022-08-07T01:10:04.780Z,460.00
2022-08-07T01:10:10.960Z,461.00
2022-08-07T01:10:35.958Z,461.00
2022-08-07T01:12:04.790Z,462.00
2022-08-07T01:12:09.388Z,464.00
2022-08-07T01:12:27.995Z,464.00
2022-08-07T01:12:36.088Z,465.00
2022-08-07T01:13:06.085Z,463.00
2022-08-07T01:13:36.109Z,463.00
2022-08-07T01:14:06.214Z,463.00
2022-08-07T01:14:37.065Z,464.00
2022-08-07T01:15:06.344Z,462.00
2022-08-07T01:16:01.000Z,462.00
2022-08-07T01:16:06.448Z,460.00
2022-08-07T01:16:36.557Z,461.00
2022-08-07T01:17:07.159Z,460.00
2022-08-07T01:17:36.719Z,460.00
2022-08-07T01:18:06.751Z,460.00
2022-08-07T01:18:36.826Z,460.00
2022-08-07T01:19:18.303Z,461.00
2022-08-07T01:19:38.494Z,462.00
2022-08-07T01:20:08.042Z,459.00
2022-08-07T01:20:43.155Z,458.00
2022-08-07T01:21:07.087Z,457.00
2022-08-07T01:21:37.092Z,457.00
2022-08-07T01:22:08.681Z,459.00
2022-08-07T01:22:37.175Z,460.00
2022-08-07T01:23:12.832Z,460.00
2022-08-07T01:23:39.328Z,460.00
2022-08-07T01:24:07.304Z,461.00
2022-08-07T01:24:37.443Z,461.00
2022-08-07T01:25:40.514Z,461.00
2022-08-07T01:25:55.121Z,461.00
2022-08-07T01:26:07.539Z,460.00
2022-08-07T01:26:37.656Z,458.00
2022-08-07T01:27:19.711Z,457.00
2022-08-07T01:27:38.375Z,458.00
2022-08-07T01:28:07.767Z,458.00
2022-08-07T01:28:37.796Z,458.00
2022-08-07T01:29:07.906Z,459.00
2022-08-07T01:29:38.013Z,458.00
2022-08-07T01:30:08.012Z,458.00
2022-08-07T01:30:38.029Z,458.00
2022-08-07T01:31:08.100Z,460.00
2022-08-07T01:31:42.436Z,459.00
2022-08-07T01:32:12.324Z,459.00
2022-08-07T01:32:38.119Z,459.00
2022-08-07T01:33:08.173Z,459.00
2022-08-07T01:33:54.006Z,458.00
2022-08-07T01:34:08.304Z,458.00
2022-08-07T01:34:38.374Z,459.00
2022-08-07T01:35:08.480Z,458.00
2022-08-07T01:35:54.435Z,458.00
2022-08-07T01:36:08.601Z,458.00
2022-08-07T01:36:40.591Z,460.00
2022-08-07T01:37:09.901Z,460.00
2022-08-07T01:37:38.697Z,459.00
2022-08-07T01:38:08.807Z,459.00
2022-08-07T01:38:38.848Z,459.00
2022-08-07T01:39:09.914Z,459.00
2022-08-07T01:39:40.504Z,459.00
2022-08-07T01:40:15.487Z,460.00
2022-08-07T01:40:38.956Z,460.00
2022-08-07T01:41:09.059Z,460.00
2022-08-07T01:41:40.769Z,461.00
2022-08-07T01:42:38.211Z,460.00
2022-08-07T01:42:57.523Z,460.00
2022-08-07T01:43:09.192Z,460.00
2022-08-07T01:43:39.298Z,461.00
2022-08-07T01:44:09.406Z,461.00
2022-08-07T01:44:39.461Z,461.00
2022-08-07T01:45:18.416Z,461.00
2022-08-07T01:45:40.140Z,461.00
2022-08-07T01:46:12.350Z,459.00
2022-08-07T01:46:40.082Z,460.00
2022-08-07T01:48:16.393Z,459.00
2022-08-07T01:48:18.476Z,460.00
2022-08-07T01:48:20.311Z,461.00
2022-08-07T01:48:41.029Z,459.00
2022-08-07T01:49:09.789Z,460.00
2022-08-07T01:49:39.796Z,461.00
2022-08-07T01:50:09.880Z,461.00
2022-08-07T01:50:40.353Z,460.00
2022-08-07T01:52:01.103Z,459.00
2022-08-07T01:52:04.277Z,458.00
2022-08-07T01:52:10.267Z,456.00
2022-08-07T01:52:49.295Z,454.00
2022-08-07T01:53:10.461Z,453.00
2022-08-07T01:54:09.046Z,453.00
2022-08-07T01:54:19.183Z,452.00
2022-08-07T01:54:40.763Z,453.00
2022-08-07T01:55:10.835Z,454.00
2022-08-07T01:55:40.811Z,454.00
2022-08-07T01:56:10.888Z,455.00
2022-08-07T01:56:40.892Z,454.00
2022-08-07T01:57:20.382Z,453.00
2022-08-07T01:58:06.026Z,452.00
2022-08-07T01:58:27.718Z,451.00
2022-08-07T01:58:41.274Z,451.00
2022-08-07T01:59:15.677Z,451.00
2022-08-07T01:59:42.202Z,450.00
2022-08-07T02:00:13.428Z,452.00
2022-08-07T02:00:48.979Z,454.00
2022-08-07T02:01:25.475Z,455.00
2022-08-07T02:02:02.855Z,456.00
2022-08-07T02:02:11.511Z,457.00
2022-08-07T02:03:18.900Z,458.00
2022-08-07T02:03:21.938Z,459.00
2022-08-07T02:03:42.912Z,459.00
2022-08-07T02:04:11.535Z,459.00
2022-08-07T02:04:55.755Z,458.00
2022-08-07T02:05:16.034Z,457.00
2022-08-07T02:05:48.169Z,457.00
2022-08-07T02:06:32.058Z,458.00
2022-08-07T02:06:41.569Z,458.00
2022-08-07T02:07:11.649Z,459.00
2022-08-07T02:07:50.048Z,459.00
2022-08-07T02:08:13.924Z,458.00
2022-08-07T02:08:42.405Z,458.00
2022-08-07T02:09:11.840Z,459.00
2022-08-07T02:09:54.725Z,459.00
2022-08-07T02:10:14.441Z,458.00
2022-08-07T02:10:42.240Z,457.00
2022-08-07T02:12:02.927Z,457.00
2022-08-07T02:12:03.288Z,456.00
2022-08-07T02:12:11.918Z,458.00
2022-08-07T02:12:41.923Z,457.00
2022-08-07T02:13:11.919Z,457.00
2022-08-07T02:13:57.963Z,459.00
2022-08-07T02:14:35.412Z,460.00
2022-08-07T02:14:41.971Z,459.00
2022-08-07T02:15:12.076Z,457.00
2022-08-07T02:15:42.192Z,457.00
2022-08-07T02:16:12.298Z,458.00
2022-08-07T02:16:42.404Z,459.00
2022-08-07T02:17:12.410Z,459.00
2022-08-07T02:17:42.507Z,458.00
2022-08-07T02:18:12.513Z,459.00
2022-08-07T02:18:46.908Z,459.00
2022-08-07T02:20:06.650Z,459.00
2022-08-07T02:20:06.814Z,460.00
2022-08-07T02:20:17.528Z,463.00
2022-08-07T02:20:42.648Z,462.00
2022-08-07T02:21:16.150Z,462.00
2022-08-07T02:21:56.224Z,462.00
2022-08-07T02:22:12.742Z,460.00
2022-08-07T02:22:43.694Z,461.00
2022-08-07T02:23:12.808Z,461.00
2022-08-07T02:23:42.815Z,462.00
2022-08-07T02:24:12.919Z,461.00
2022-08-07T02:24:44.754Z,461.00
2022-08-07T02:25:17.178Z,461.00
2022-08-07T02:26:30.952Z,462.00
2022-08-07T02:26:32.412Z,462.00
2022-08-07T02:26:43.162Z,460.00
2022-08-07T02:27:13.271Z,460.00
2022-08-07T02:27:43.379Z,459.00
2022-08-07T02:28:13.385Z,459.00
2022-08-07T02:28:43.389Z,459.00
2022-08-07T02:29:13.669Z,460.00
2022-08-07T02:29:53.992Z,458.00
2022-08-07T02:30:14.324Z,458.00
2022-08-07T02:30:43.718Z,458.00
2022-08-07T02:31:28.292Z,458.00
2022-08-07T02:31:43.842Z,458.00
2022-08-07T02:32:13.935Z,457.00
2022-08-07T02:33:01.064Z,456.00
2022-08-07T02:33:13.974Z,457.00
2022-08-07T02:34:03.083Z,457.00
2022-08-07T02:34:17.291Z,457.00
2022-08-07T02:34:48.953Z,458.00
2022-08-07T02:35:14.082Z,460.00
2022-08-07T02:36:26.914Z,459.00
2022-08-07T02:36:30.135Z,458.00
2022-08-07T02:36:44.109Z,457.00
2022-08-07T02:37:14.167Z,457.00
2022-08-07T02:37:44.402Z,459.00
2022-08-07T02:38:14.368Z,458.00
2022-08-07T02:38:50.686Z,457.00
2022-08-07T02:39:17.264Z,458.00
2022-08-07T02:40:02.538Z,459.00
2022-08-07T02:40:30.695Z,460.00
2022-08-07T02:40:44.593Z,458.00
2022-08-07T02:41:14.642Z,456.00
2022-08-07T02:41:50.821Z,457.00
2022-08-07T02:42:16.449Z,456.00
2022-08-07T02:42:44.611Z,456.00
2022-08-07T02:43:14.694Z,456.00
2022-08-07T02:43:48.938Z,456.00
2022-08-07T02:44:14.808Z,458.00
2022-08-07T02:44:47.930Z,457.00
2022-08-07T02:46:00.743Z,458.00
2022-08-07T02:46:01.465Z,458.00
2022-08-07T02:46:15.162Z,457.00
2022-08-07T02:46:46.853Z,457.00
2022-08-07T02:47:19.826Z,457.00
2022-08-07T02:47:49.223Z,461.00
2022-08-07T02:48:15.522Z,463.00
2022-08-07T02:48:47.048Z,462.00
2022-08-07T02:49:55.748Z,463.00
2022-08-07T02:49:58.807Z,461.00
2022-08-07T02:50:15.389Z,461.00
2022-08-07T02:50:45.494Z,462.00
2022-08-07T02:51:41.906Z,463.00
2022-08-07T02:51:49.823Z,463.00
2022-08-07T02:52:15.772Z,462.00
2022-08-07T02:52:48.623Z,462.00
2022-08-07T02:53:15.892Z,462.00
2022-08-07T02:53:45.965Z,461.00
2022-08-07T02:54:16.069Z,460.00
2022-08-07T02:54:46.139Z,459.00
2022-08-07T02:55:28.314Z,459.00
2022-08-07T02:56:03.430Z,458.00
2022-08-07T02:56:21.062Z,457.00
2022-08-07T02:56:46.448Z,457.00
2022-08-07T02:57:16.514Z,458.00
2022-08-07T02:57:46.773Z,458.00
2022-08-07T02:58:16.543Z,459.00
2022-08-07T02:58:47.289Z,460.00
2022-08-07T02:59:16.700Z,459.00
2022-08-07T02:59:55.035Z,459.00
2022-08-07T03:00:16.818Z,457.00
2022-08-07T03:00:47.545Z,457.00
2022-08-07T03:01:19.125Z,457.00
2022-08-07T03:01:47.179Z,456.00
2022-08-07T03:02:17.088Z,458.00
2022-08-07T03:02:54.491Z,457.00
2022-08-07T03:03:20.987Z,458.00
2022-08-07T03:03:50.479Z,459.00
2022-08-07T03:04:17.128Z,459.00
2022-08-07T03:04:47.114Z,460.00
2022-08-07T03:05:20.694Z,458.00
2022-08-07T03:05:47.230Z,459.00
2022-08-07T03:06:25.824Z,459.00
2022-08-07T03:06:48.189Z,458.00
2022-08-07T03:07:17.431Z,458.00
2022-08-07T03:08:07.463Z,458.00
2022-08-07T03:08:17.483Z,459.00
2022-08-07T03:08:47.593Z,459.00
2022-08-07T03:09:42.243Z,461.00
2022-08-07T03:09:51.990Z,461.00
2022-08-07T03:10:17.723Z,459.00
2022-08-07T03:10:47.827Z,458.00
2022-08-07T03:11:17.942Z,459.00
2022-08-07T03:11:51.756Z,459.00
2022-08-07T03:12:22.696Z,460.00
2022-08-07T03:12:48.146Z,459.00
2022-08-07T03:13:19.613Z,459.00
2022-08-07T03:13:49.704Z,458.00
2022-08-07T03:14:18.416Z,458.00
2022-08-07T03:14:52.301Z,457.00
2022-08-07T03:15:30.132Z,458.00
2022-08-07T03:15:56.474Z,458.00
2022-08-07T03:16:18.512Z,458.00
2022-08-07T03:16:48.624Z,458.00
2022-08-07T03:17:18.658Z,458.00
2022-08-07T03:17:53.667Z,459.00
2022-08-07T03:18:20.076Z,459.00
2022-08-07T03:18:48.763Z,458.00
2022-08-07T03:19:18.773Z,459.00
2022-08-07T03:19:54.920Z,458.00
2022-08-07T03:20:18.896Z,456.00
2022-08-07T03:20:48.933Z,456.00
2022-08-07T03:21:19.215Z,455.00
2022-08-07T03:21:50.857Z,454.00
2022-08-07T03:22:19.330Z,453.00
2022-08-07T03:22:50.176Z,452.00
2022-08-07T03:23:19.519Z,453.00
2022-08-07T03:24:20.820Z,453.00
2022-08-07T03:24:27.206Z,454.00
2022-08-07T03:24:49.252Z,454.00
2022-08-07T03:25:20.925Z,455.00
2022-08-07T03:25:58.296Z,457.00
2022-08-07T03:26:23.410Z,457.00
2022-08-07T03:26:51.465Z,456.00
2022-08-07T03:27:30.564Z,455.00
2022-08-07T03:27:59.205Z,455.00
2022-08-07T03:28:37.151Z,455.00
2022-08-07T03:28:49.626Z,455.00
2022-08-07T03:29:19.695Z,455.00
2022-08-07T03:29:51.036Z,454.00
2022-08-07T03:30:19.760Z,453.00
2022-08-07T03:30:49.993Z,454.00
2022-08-07T03:31:24.627Z,455.00
2022-08-07T03:31:50.143Z,454.00
2022-08-07T03:32:19.986Z,454.00
2022-08-07T03:32:58.256Z,454.00
2022-08-07T03:33:20.254Z,453.00
2022-08-07T03:33:50.209Z,452.00
2022-08-07T03:34:22.649Z,452.00
2022-08-07T03:35:18.160Z,451.00
2022-08-07T03:35:26.138Z,453.00
2022-08-07T03:35:50.824Z,453.00
2022-08-07T03:36:20.407Z,452.00
2022-08-07T03:36:50.413Z,451.00
2022-08-07T03:37:20.523Z,452.00
2022-08-07T03:37:53.518Z,453.00
2022-08-07T03:38:21.082Z,453.00
2022-08-07T03:38:50.589Z,454.00
2022-08-07T03:39:59.463Z,455.00
2022-08-07T03:40:07.301Z,455.00
2022-08-07T03:40:20.773Z,454.00
2022-08-07T03:40:53.835Z,455.00
2022-08-07T03:41:20.847Z,456.00
2022-08-07T03:41:51.098Z,455.00
2022-08-07T03:42:20.852Z,454.00
2022-08-07T03:42:50.971Z,453.00
2022-08-07T03:43:21.071Z,453.00
2022-08-07T03:43:57.215Z,453.00
2022-08-07T03:44:21.662Z,453.00
2022-08-07T03:44:57.714Z,452.00
2022-08-07T03:45:21.126Z,453.00
2022-08-07T03:45:51.118Z,453.00
2022-08-07T03:46:21.224Z,454.00
2022-08-07T03:47:11.411Z,456.00
2022-08-07T03:47:21.232Z,457.00
2022-08-07T03:47:51.664Z,457.00
2022-08-07T03:48:21.361Z,456.00
2022-08-07T03:49:02.796Z,456.00
2022-08-07T03:49:21.577Z,454.00
2022-08-07T03:49:53.525Z,455.00
2022-08-07T03:50:23.093Z,453.00
2022-08-07T03:50:55.705Z,451.00
2022-08-07T03:51:21.848Z,450.00
2022-08-07T03:51:57.339Z,451.00
2022-08-07T03:52:26.134Z,450.00
2022-08-07T03:52:52.125Z,448.00
2022-08-07T03:53:50.227Z,449.00
2022-08-07T03:54:33.331Z,448.00
2022-08-07T03:54:36.065Z,448.00
2022-08-07T03:54:54.073Z,449.00
2022-08-07T03:55:22.462Z,449.00
2022-08-07T03:55:57.680Z,451.00
2022-08-07T03:56:32.767Z,451.00
2022-08-07T03:57:03.517Z,451.00
2022-08-07T03:58:32.675Z,451.00
2022-08-07T03:58:33.954Z,450.00
2022-08-07T03:59:05.757Z,451.00
2022-08-07T03:59:07.427Z,453.00
2022-08-07T03:59:23.148Z,452.00
2022-08-07T04:00:01.810Z,452.00
2022-08-07T04:00:30.388Z,451.00
2022-08-07T04:00:56.990Z,451.00
2022-08-07T04:01:23.354Z,451.00
2022-08-07T04:01:53.407Z,450.00
2022-08-07T04:02:23.397Z,449.00
2022-08-07T04:02:56.902Z,451.00
2022-08-07T04:03:23.512Z,452.00
2022-08-07T04:03:55.315Z,452.00
2022-08-07T04:04:23.642Z,455.00
2022-08-07T04:04:53.744Z,454.00
2022-08-07T04:05:24.167Z,456.00
2022-08-07T04:05:58.888Z,458.00
2022-08-07T04:06:37.534Z,459.00
2022-08-07T04:06:53.997Z,458.00
2022-08-07T04:07:23.904Z,458.00
2022-08-07T04:07:53.986Z,457.00
2022-08-07T04:08:24.098Z,458.00
2022-08-07T04:08:54.170Z,457.00
2022-08-07T04:09:24.214Z,457.00
2022-08-07T04:09:54.208Z,457.00
2022-08-07T04:10:24.313Z,456.00
2022-08-07T04:11:28.853Z,456.00
2022-08-07T04:12:24.220Z,456.00
2022-08-07T04:12:26.724Z,455.00
2022-08-07T04:12:28.796Z,455.00
2022-08-07T04:12:54.428Z,454.00
2022-08-07T04:13:27.742Z,453.00
2022-08-07T04:14:10.879Z,451.00
2022-08-07T04:14:37.048Z,453.00
2022-08-07T04:14:54.674Z,452.00
2022-08-07T04:15:24.698Z,452.00
2022-08-07T04:15:54.805Z,453.00
2022-08-07T04:16:31.349Z,453.00
2022-08-07T04:16:58.517Z,454.00
2022-08-07T04:17:25.014Z,454.00
2022-08-07T04:18:56.816Z,454.00
2022-08-07T04:18:58.499Z,453.00
2022-08-07T04:18:59.830Z,453.00
2022-08-07T04:19:25.049Z,452.00
2022-08-07T04:19:55.359Z,453.00
2022-08-07T04:20:25.307Z,453.00
2022-08-07T04:20:55.313Z,453.00
2022-08-07T04:21:25.138Z,454.00
2022-08-07T04:21:59.630Z,455.00
2022-08-07T04:22:29.341Z,454.00
2022-08-07T04:23:01.606Z,453.00
2022-08-07T04:23:25.258Z,454.00
2022-08-07T04:24:07.340Z,454.00
2022-08-07T04:24:26.870Z,453.00
2022-08-07T04:24:55.288Z,454.00
2022-08-07T04:25:25.342Z,455.00
2022-08-07T04:25:55.390Z,456.00
2022-08-07T04:26:28.550Z,456.00
2022-08-07T04:26:55.575Z,456.00
2022-08-07T04:27:26.644Z,456.00
2022-08-07T04:27:59.163Z,456.00
2022-08-07T04:28:25.753Z,456.00
2022-08-07T04:28:55.859Z,455.00
2022-08-07T04:29:25.968Z,455.00
2022-08-07T04:30:01.549Z,456.00
2022-08-07T04:30:43.799Z,456.00
2022-08-07T04:30:58.592Z,456.00
2022-08-07T04:31:51.221Z,457.00
2022-08-07T04:32:09.706Z,458.00
2022-08-07T04:32:33.973Z,457.00
2022-08-07T04:32:58.226Z,459.00
2022-08-07T04:33:26.202Z,457.00
2022-08-07T04:33:56.597Z,457.00
2022-08-07T04:34:27.534Z,456.00
2022-08-07T04:34:56.296Z,457.00
2022-08-07T04:35:26.405Z,455.00
2022-08-07T04:35:56.510Z,455.00
2022-08-07T04:36:26.601Z,455.00
2022-08-07T04:36:56.618Z,457.00
2022-08-07T04:37:26.722Z,458.00
2022-08-07T04:38:06.499Z,458.00
2022-08-07T04:38:26.793Z,458.00
2022-08-07T04:38:56.884Z,459.00
2022-08-07T04:39:27.021Z,460.00
2022-08-07T04:39:57.007Z,460.00
2022-08-07T04:40:30.129Z,461.00
2022-08-07T04:40:57.053Z,461.00
2022-08-07T04:41:27.150Z,461.00
2022-08-07T04:41:57.134Z,460.00
2022-08-07T04:42:28.681Z,461.00
2022-08-07T04:43:01.854Z,461.00
2022-08-07T04:44:09.922Z,459.00
2022-08-07T04:44:12.905Z,458.00
2022-08-07T04:44:27.256Z,456.00
2022-08-07T04:45:07.795Z,458.00
2022-08-07T04:45:57.369Z,459.00
2022-08-07T04:46:01.767Z,459.00
2022-08-07T04:46:34.345Z,458.00
2022-08-07T04:47:04.556Z,458.00
2022-08-07T04:48:00.896Z,457.00
2022-08-07T04:48:04.216Z,456.00
2022-08-07T04:48:27.407Z,454.00
2022-08-07T04:48:57.512Z,455.00
2022-08-07T04:49:27.535Z,456.00
2022-08-07T04:50:03.961Z,455.00
2022-08-07T04:50:27.683Z,454.00
2022-08-07T04:50:57.752Z,454.00
2022-08-07T04:51:27.855Z,454.00
2022-08-07T04:51:57.892Z,454.00
2022-08-07T04:52:27.917Z,456.00
2022-08-07T04:52:57.987Z,457.00
2022-08-07T04:54:01.124Z,456.00
2022-08-07T04:54:01.728Z,456.00
2022-08-07T04:54:30.139Z,457.00
2022-08-07T04:54:58.265Z,458.00
2022-08-07T04:58:10.346Z,462.00
2022-08-07T04:58:10.351Z,462.00
2022-08-07T04:58:12.382Z,464.00
2022-08-07T04:58:12.968Z,462.00
2022-08-07T04:58:15.788Z,459.00
2022-08-07T04:58:16.568Z,460.00
2022-08-07T04:58:47.633Z,462.00
2022-08-07T05:00:09.695Z,465.00
2022-08-07T05:00:11.306Z,466.00
2022-08-07T05:00:30.800Z,465.00
2022-08-07T05:00:59.182Z,466.00
2022-08-07T05:01:29.910Z,465.00
2022-08-07T05:01:59.276Z,465.00
2022-08-07T05:02:29.291Z,465.00
2022-08-07T05:02:59.399Z,465.00
2022-08-07T05:04:00.061Z,463.00
2022-08-07T05:04:07.856Z,463.00
2022-08-07T05:04:29.470Z,464.00
2022-08-07T05:04:59.517Z,464.00
2022-08-07T05:05:53.590Z,463.00
2022-08-07T05:05:59.620Z,461.00
2022-08-07T05:06:29.654Z,459.00
2022-08-07T05:06:59.660Z,458.00
2022-08-07T05:07:36.524Z,458.00
2022-08-07T05:07:59.773Z,458.00
2022-08-07T05:09:00.072Z,458.00
2022-08-07T05:09:02.203Z,458.00
2022-08-07T05:09:45.871Z,459.00
2022-08-07T05:09:59.979Z,458.00
2022-08-07T05:10:30.048Z,457.00
2022-08-07T05:11:02.637Z,459.00
2022-08-07T05:11:57.376Z,460.00
2022-08-07T05:12:02.325Z,460.00
2022-08-07T05:12:30.718Z,459.00
2022-08-07T05:14:44.431Z,458.00
2022-08-07T05:14:52.508Z,456.00
2022-08-07T05:14:53.106Z,458.00
2022-08-07T05:14:53.190Z,456.00
2022-08-07T05:15:04.916Z,456.00
2022-08-07T05:15:30.499Z,457.00
2022-08-07T05:16:00.601Z,459.00
2022-08-07T05:16:30.612Z,459.00
2022-08-07T05:17:00.719Z,458.00
2022-08-07T05:17:51.598Z,459.00
2022-08-07T05:18:01.525Z,457.00
2022-08-07T05:18:30.746Z,457.00
2022-08-07T05:19:00.837Z,456.00
2022-08-07T05:19:44.273Z,457.00
2022-08-07T05:20:00.936Z,459.00
2022-08-07T05:20:31.043Z,458.00
2022-08-07T05:21:01.182Z,458.00
2022-08-07T05:21:58.982Z,457.00
2022-08-07T05:22:01.941Z,457.00
2022-08-07T05:22:31.175Z,457.00
2022-08-07T05:23:01.193Z,457.00
2022-08-07T05:23:31.299Z,457.00
2022-08-07T05:24:01.383Z,457.00
2022-08-07T05:24:40.368Z,454.00
2022-08-07T05:25:01.495Z,455.00
2022-08-07T05:25:36.604Z,455.00
2022-08-07T05:26:13.722Z,456.00
2022-08-07T05:26:31.630Z,457.00
2022-08-07T05:27:01.699Z,458.00
2022-08-07T05:28:02.452Z,458.00
2022-08-07T05:28:02.743Z,457.00
2022-08-07T05:28:32.101Z,458.00
2022-08-07T05:29:04.213Z,457.00
2022-08-07T05:29:39.030Z,456.00
2022-08-07T05:30:01.880Z,455.00
2022-08-07T05:30:33.090Z,454.00
2022-08-07T05:31:02.048Z,452.00
2022-08-07T05:31:35.310Z,452.00
2022-08-07T05:32:02.032Z,451.00
2022-08-07T05:32:32.028Z,450.00
2022-08-07T05:33:02.546Z,449.00
2022-08-07T05:33:32.098Z,448.00
2022-08-07T05:34:05.663Z,450.00
2022-08-07T05:34:32.223Z,450.00
2022-08-07T05:35:02.322Z,451.00
2022-08-07T05:35:33.409Z,451.00
2022-08-07T05:36:02.336Z,450.00
2022-08-07T05:36:35.731Z,451.00
2022-08-07T05:37:02.524Z,449.00
2022-08-07T05:37:32.528Z,450.00
2022-08-07T05:38:08.828Z,449.00
2022-08-07T05:39:00.109Z,449.00
2022-08-07T05:40:04.956Z,449.00
2022-08-07T05:40:05.574Z,450.00
2022-08-07T05:40:06.393Z,450.00
2022-08-07T05:40:32.617Z,449.00
2022-08-07T05:41:12.097Z,449.00
2022-08-07T05:42:00.300Z,450.00
2022-08-07T05:42:06.397Z,450.00
2022-08-07T05:42:34.668Z,450.00
2022-08-07T05:43:02.688Z,451.00
2022-08-07T05:43:49.771Z,452.00
2022-08-07T05:44:11.828Z,450.00
2022-08-07T05:44:32.727Z,451.00
2022-08-07T05:45:14.601Z,449.00
2022-08-07T05:45:47.267Z,448.00
2022-08-07T05:46:02.866Z,448.00
2022-08-07T05:46:32.847Z,447.00
2022-08-07T05:47:18.211Z,447.00
2022-08-07T05:48:00.316Z,449.00
2022-08-07T05:48:03.534Z,450.00
2022-08-07T05:48:32.977Z,451.00
2022-08-07T05:49:11.799Z,451.00
2022-08-07T05:49:40.659Z,452.00
2022-08-07T05:50:03.032Z,453.00
2022-08-07T05:50:33.125Z,453.00
2022-08-07T05:51:03.477Z,453.00
2022-08-07T05:51:33.498Z,453.00
2022-08-07T05:52:03.246Z,454.00
2022-08-07T05:52:33.343Z,454.00
2022-08-07T05:53:04.084Z,455.00
2022-08-07T05:54:13.954Z,454.00
2022-08-07T05:54:14.068Z,455.00
2022-08-07T05:54:53.556Z,455.00
2022-08-07T05:55:10.407Z,454.00
2022-08-07T05:56:02.084Z,454.00
2022-08-07T05:56:06.127Z,455.00
2022-08-07T05:56:33.596Z,457.00
2022-08-07T05:57:03.647Z,457.00
2022-08-07T05:57:34.672Z,455.00
2022-08-07T05:58:03.795Z,455.00
2022-08-07T05:58:36.709Z,454.00
2022-08-07T05:59:03.899Z,455.00
2022-08-07T05:59:47.257Z,455.00
2022-08-07T06:00:03.949Z,455.00
2022-08-07T06:00:33.989Z,453.00
2022-08-07T06:01:05.101Z,453.00
2022-08-07T06:01:35.730Z,452.00
2022-08-07T06:02:04.338Z,451.00
2022-08-07T06:02:34.244Z,452.00
2022-08-07T06:03:04.349Z,453.00
2022-08-07T06:03:56.646Z,453.00
2022-08-07T06:04:04.448Z,454.00
2022-08-07T06:04:34.479Z,453.00
2022-08-07T06:05:04.554Z,452.00
2022-08-07T06:05:34.626Z,452.00
2022-08-07T06:06:04.645Z,450.00
2022-08-07T06:06:34.671Z,452.00
2022-08-07T06:07:04.774Z,450.00
2022-08-07T06:08:14.429Z,449.00
2022-08-07T06:08:29.616Z,451.00
2022-08-07T06:08:40.432Z,448.00
2022-08-07T06:09:05.159Z,450.00
2022-08-07T06:10:04.259Z,450.00
2022-08-07T06:10:06.185Z,450.00
2022-08-07T06:10:35.085Z,450.00
2022-08-07T06:11:05.109Z,450.00
2022-08-07T06:11:35.160Z,452.00
2022-08-07T06:12:05.178Z,452.00
2022-08-07T06:12:35.256Z,451.00
2022-08-07T06:13:05.274Z,451.00
2022-08-07T06:14:12.999Z,450.00
2022-08-07T06:14:13.174Z,451.00
2022-08-07T06:14:35.384Z,450.00
2022-08-07T06:15:05.999Z,450.00
2022-08-07T06:15:40.430Z,450.00